sensor_id;sensor_type;location;lat;lon;timestamp;temperature;humidity
21676;DHT22;10999;51.332;9.458;2023-07-24T00:00:28;17.80;93.40
21676;DHT22;10999;51.332;9.458;2023-07-24T00:02:55;17.90;93.80
21676;DHT22;10999;51.332;9.458;2023-07-24T00:05:23;17.80;94.00
21676;DHT22;10999;51.332;9.458;2023-07-24T00:07:50;17.80;94.10
21676;DHT22;10999;51.332;9.458;2023-07-24T00:10:16;17.70;94.80
21676;DHT22;10999;51.332;9.458;2023-07-24T00:12:43;17.70;95.10
21676;DHT22;10999;51.332;9.458;2023-07-24T00:15:10;17.70;95.00
21676;DHT22;10999;51.332;9.458;2023-07-24T00:17:37;17.70;95.20
21676;DHT22;10999;51.332;9.458;2023-07-24T00:20:04;17.70;95.20
21676;DHT22;10999;51.332;9.458;2023-07-24T00:22:31;17.60;95.20
21676;DHT22;10999;51.332;9.458;2023-07-24T00:24:58;17.60;95.50
21676;DHT22;10999;51.332;9.458;2023-07-24T00:27:25;17.50;95.60
21676;DHT22;10999;51.332;9.458;2023-07-24T00:29:52;17.60;95.80
21676;DHT22;10999;51.332;9.458;2023-07-24T00:32:18;17.50;95.80
21676;DHT22;10999;51.332;9.458;2023-07-24T00:34:45;17.50;96.20
21676;DHT22;10999;51.332;9.458;2023-07-24T00:37:12;17.50;96.00
21676;DHT22;10999;51.332;9.458;2023-07-24T00:39:39;17.50;95.80
21676;DHT22;10999;51.332;9.458;2023-07-24T00:42:06;17.50;95.80
21676;DHT22;10999;51.332;9.458;2023-07-24T00:44:33;17.40;95.80
21676;DHT22;10999;51.332;9.458;2023-07-24T00:46:59;17.40;95.80
21676;DHT22;10999;51.332;9.458;2023-07-24T00:49:27;17.40;95.60
21676;DHT22;10999;51.332;9.458;2023-07-24T00:51:53;17.40;95.60
21676;DHT22;10999;51.332;9.458;2023-07-24T00:54:22;17.30;95.80
21676;DHT22;10999;51.332;9.458;2023-07-24T00:56:50;17.30;96.10
21676;DHT22;10999;51.332;9.458;2023-07-24T00:59:16;17.30;96.30
21676;DHT22;10999;51.332;9.458;2023-07-24T01:01:44;17.20;96.50
21676;DHT22;10999;51.332;9.458;2023-07-24T01:04:11;17.20;96.60
21676;DHT22;10999;51.332;9.458;2023-07-24T01:06:37;17.10;96.80
21676;DHT22;10999;51.332;9.458;2023-07-24T01:09:04;17.10;97.30
21676;DHT22;10999;51.332;9.458;2023-07-24T01:11:47;17.10;97.40
21676;DHT22;10999;51.332;9.458;2023-07-24T01:14:26;17.10;97.10
21676;DHT22;10999;51.332;9.458;2023-07-24T01:16:56;17.10;97.30
21676;DHT22;10999;51.332;9.458;2023-07-24T01:19:40;17.10;97.40
21676;DHT22;10999;51.332;9.458;2023-07-24T01:22:20;17.10;97.60
21676;DHT22;10999;51.332;9.458;2023-07-24T01:25:11;17.00;97.50
21676;DHT22;10999;51.332;9.458;2023-07-24T01:27:45;17.00;97.50
21676;DHT22;10999;51.332;9.458;2023-07-24T01:30:16;16.90;97.60
21676;DHT22;10999;51.332;9.458;2023-07-24T01:32:44;16.90;97.80
21676;DHT22;10999;51.332;9.458;2023-07-24T01:35:11;16.90;98.00
21676;DHT22;10999;51.332;9.458;2023-07-24T01:37:38;16.90;97.90
21676;DHT22;10999;51.332;9.458;2023-07-24T01:40:08;16.90;98.10
21676;DHT22;10999;51.332;9.458;2023-07-24T01:42:36;16.80;98.00
21676;DHT22;10999;51.332;9.458;2023-07-24T01:45:04;16.80;97.70
21676;DHT22;10999;51.332;9.458;2023-07-24T01:47:31;16.70;98.00
21676;DHT22;10999;51.332;9.458;2023-07-24T01:49:58;16.70;98.40
21676;DHT22;10999;51.332;9.458;2023-07-24T01:52:25;16.70;98.60
21676;DHT22;10999;51.332;9.458;2023-07-24T01:54:52;16.60;98.80
21676;DHT22;10999;51.332;9.458;2023-07-24T01:57:18;16.60;99.00
21676;DHT22;10999;51.332;9.458;2023-07-24T01:59:45;16.60;99.10
21676;DHT22;10999;51.332;9.458;2023-07-24T02:02:12;16.60;99.70
21676;DHT22;10999;51.332;9.458;2023-07-24T02:04:39;16.60;99.50
21676;DHT22;10999;51.332;9.458;2023-07-24T02:07:06;16.60;99.90
21676;DHT22;10999;51.332;9.458;2023-07-24T02:09:32;16.60;99.90
21676;DHT22;10999;51.332;9.458;2023-07-24T02:11:59;16.60;99.80
21676;DHT22;10999;51.332;9.458;2023-07-24T02:14:26;16.50;99.80
21676;DHT22;10999;51.332;9.458;2023-07-24T02:16:53;16.50;99.70
21676;DHT22;10999;51.332;9.458;2023-07-24T02:19:20;16.50;99.90
21676;DHT22;10999;51.332;9.458;2023-07-24T02:21:46;16.50;99.90
21676;DHT22;10999;51.332;9.458;2023-07-24T02:24:13;16.50;99.90
21676;DHT22;10999;51.332;9.458;2023-07-24T02:26:40;16.60;99.90
21676;DHT22;10999;51.332;9.458;2023-07-24T02:29:07;16.60;99.90
21676;DHT22;10999;51.332;9.458;2023-07-24T02:31:34;16.50;99.90
21676;DHT22;10999;51.332;9.458;2023-07-24T02:34:01;16.60;99.90
21676;DHT22;10999;51.332;9.458;2023-07-24T02:36:28;16.50;99.90
21676;DHT22;10999;51.332;9.458;2023-07-24T02:38:55;16.50;99.90
21676;DHT22;10999;51.332;9.458;2023-07-24T02:41:21;16.40;99.90
21676;DHT22;10999;51.332;9.458;2023-07-24T02:43:48;16.40;99.90
21676;DHT22;10999;51.332;9.458;2023-07-24T02:46:15;16.40;99.90
21676;DHT22;10999;51.332;9.458;2023-07-24T02:48:42;16.30;99.90
21676;DHT22;10999;51.332;9.458;2023-07-24T02:51:09;16.30;99.90
21676;DHT22;10999;51.332;9.458;2023-07-24T02:53:35;16.30;99.90
21676;DHT22;10999;51.332;9.458;2023-07-24T02:56:02;16.40;99.90
21676;DHT22;10999;51.332;9.458;2023-07-24T02:58:29;16.40;99.90
21676;DHT22;10999;51.332;9.458;2023-07-24T03:01:03;16.40;99.90
21676;DHT22;10999;51.332;9.458;2023-07-24T03:03:30;16.40;99.90
21676;DHT22;10999;51.332;9.458;2023-07-24T03:05:57;16.40;99.90
21676;DHT22;10999;51.332;9.458;2023-07-24T03:08:24;16.40;99.90
21676;DHT22;10999;51.332;9.458;2023-07-24T03:10:51;16.40;99.90
21676;DHT22;10999;51.332;9.458;2023-07-24T03:13:18;16.40;99.90
21676;DHT22;10999;51.332;9.458;2023-07-24T03:15:52;16.40;99.90
21676;DHT22;10999;51.332;9.458;2023-07-24T03:18:19;16.40;99.90
21676;DHT22;10999;51.332;9.458;2023-07-24T03:20:46;16.40;99.80
21676;DHT22;10999;51.332;9.458;2023-07-24T03:23:13;16.50;99.90
21676;DHT22;10999;51.332;9.458;2023-07-24T03:25:40;16.50;99.80
21676;DHT22;10999;51.332;9.458;2023-07-24T03:28:07;16.60;99.70
21676;DHT22;10999;51.332;9.458;2023-07-24T03:30:34;16.60;99.40
21676;DHT22;10999;51.332;9.458;2023-07-24T03:33:01;16.60;99.10
21676;DHT22;10999;51.332;9.458;2023-07-24T03:35:28;16.60;99.00
21676;DHT22;10999;51.332;9.458;2023-07-24T03:37:55;16.70;98.90
21676;DHT22;10999;51.332;9.458;2023-07-24T03:40:22;16.70;98.90
21676;DHT22;10999;51.332;9.458;2023-07-24T03:42:49;16.60;98.90
21676;DHT22;10999;51.332;9.458;2023-07-24T03:45:16;16.70;98.90
21676;DHT22;10999;51.332;9.458;2023-07-24T03:47:43;16.60;98.80
21676;DHT22;10999;51.332;9.458;2023-07-24T03:50:10;16.60;98.70
21676;DHT22;10999;51.332;9.458;2023-07-24T03:52:36;16.60;98.70
21676;DHT22;10999;51.332;9.458;2023-07-24T03:55:04;16.60;98.60
21676;DHT22;10999;51.332;9.458;2023-07-24T03:57:30;16.60;98.50
21676;DHT22;10999;51.332;9.458;2023-07-24T03:59:57;16.60;99.20
21676;DHT22;10999;51.332;9.458;2023-07-24T04:02:24;16.60;98.30
21676;DHT22;10999;51.332;9.458;2023-07-24T04:04:51;16.60;98.60
21676;DHT22;10999;51.332;9.458;2023-07-24T04:07:18;16.60;98.60
21676;DHT22;10999;51.332;9.458;2023-07-24T04:09:44;16.60;98.70
21676;DHT22;10999;51.332;9.458;2023-07-24T04:12:11;16.60;98.60
21676;DHT22;10999;51.332;9.458;2023-07-24T04:14:38;16.70;98.80
21676;DHT22;10999;51.332;9.458;2023-07-24T04:17:05;16.70;98.60
21676;DHT22;10999;51.332;9.458;2023-07-24T04:19:33;16.70;98.50
21676;DHT22;10999;51.332;9.458;2023-07-24T04:22:00;16.80;98.50
21676;DHT22;10999;51.332;9.458;2023-07-24T04:24:27;16.80;98.40
21676;DHT22;10999;51.332;9.458;2023-07-24T04:26:53;16.80;98.30
21676;DHT22;10999;51.332;9.458;2023-07-24T04:29:20;16.80;97.80
21676;DHT22;10999;51.332;9.458;2023-07-24T04:31:50;16.80;97.40
21676;DHT22;10999;51.332;9.458;2023-07-24T04:34:17;16.80;97.40
21676;DHT22;10999;51.332;9.458;2023-07-24T04:36:44;16.90;97.60
21676;DHT22;10999;51.332;9.458;2023-07-24T04:39:10;16.90;97.30
21676;DHT22;10999;51.332;9.458;2023-07-24T04:41:37;16.90;97.40
21676;DHT22;10999;51.332;9.458;2023-07-24T04:44:04;16.90;96.90
21676;DHT22;10999;51.332;9.458;2023-07-24T04:46:31;16.90;96.80
21676;DHT22;10999;51.332;9.458;2023-07-24T04:48:58;16.90;96.80
21676;DHT22;10999;51.332;9.458;2023-07-24T04:51:25;16.90;96.90
21676;DHT22;10999;51.332;9.458;2023-07-24T04:53:53;16.90;96.80
21676;DHT22;10999;51.332;9.458;2023-07-24T04:56:20;17.00;96.90
21676;DHT22;10999;51.332;9.458;2023-07-24T04:58:47;16.90;96.70
21676;DHT22;10999;51.332;9.458;2023-07-24T05:01:14;17.00;96.20
21676;DHT22;10999;51.332;9.458;2023-07-24T05:03:41;17.00;96.00
21676;DHT22;10999;51.332;9.458;2023-07-24T05:06:08;17.00;96.10
21676;DHT22;10999;51.332;9.458;2023-07-24T05:08:35;17.00;96.30
21676;DHT22;10999;51.332;9.458;2023-07-24T05:11:01;17.10;97.20
21676;DHT22;10999;51.332;9.458;2023-07-24T05:13:28;17.10;96.30
21676;DHT22;10999;51.332;9.458;2023-07-24T05:15:55;17.30;95.50
21676;DHT22;10999;51.332;9.458;2023-07-24T05:18:22;17.30;95.50
21676;DHT22;10999;51.332;9.458;2023-07-24T05:20:49;17.30;94.90
21676;DHT22;10999;51.332;9.458;2023-07-24T05:23:18;17.30;94.90
21676;DHT22;10999;51.332;9.458;2023-07-24T05:25:46;17.40;95.50
21676;DHT22;10999;51.332;9.458;2023-07-24T05:28:13;17.50;95.20
21676;DHT22;10999;51.332;9.458;2023-07-24T05:30:40;17.50;95.20
21676;DHT22;10999;51.332;9.458;2023-07-24T05:33:06;17.50;95.00
21676;DHT22;10999;51.332;9.458;2023-07-24T05:35:33;17.50;93.20
21676;DHT22;10999;51.332;9.458;2023-07-24T05:38:00;17.50;92.00
21676;DHT22;10999;51.332;9.458;2023-07-24T05:40:28;17.60;92.40
21676;DHT22;10999;51.332;9.458;2023-07-24T05:42:55;17.60;92.50
21676;DHT22;10999;51.332;9.458;2023-07-24T05:45:22;17.60;92.80
21676;DHT22;10999;51.332;9.458;2023-07-24T05:47:48;17.60;92.30
21676;DHT22;10999;51.332;9.458;2023-07-24T05:50:15;17.60;92.40
21676;DHT22;10999;51.332;9.458;2023-07-24T05:52:42;17.70;92.00
21676;DHT22;10999;51.332;9.458;2023-07-24T05:55:09;17.70;92.00
21676;DHT22;10999;51.332;9.458;2023-07-24T05:57:36;17.70;91.90
21676;DHT22;10999;51.332;9.458;2023-07-24T06:00:04;17.80;91.90
21676;DHT22;10999;51.332;9.458;2023-07-24T06:02:31;17.80;91.90
21676;DHT22;10999;51.332;9.458;2023-07-24T06:04:58;17.90;92.70
21676;DHT22;10999;51.332;9.458;2023-07-24T06:07:25;17.90;90.30
21676;DHT22;10999;51.332;9.458;2023-07-24T06:09:52;18.00;89.80
21676;DHT22;10999;51.332;9.458;2023-07-24T06:12:18;18.00;90.20
21676;DHT22;10999;51.332;9.458;2023-07-24T06:14:45;18.10;90.50
21676;DHT22;10999;51.332;9.458;2023-07-24T06:17:12;18.10;88.90
21676;DHT22;10999;51.332;9.458;2023-07-24T06:19:39;18.20;88.50
21676;DHT22;10999;51.332;9.458;2023-07-24T06:22:06;18.40;87.90
21676;DHT22;10999;51.332;9.458;2023-07-24T06:24:33;18.70;89.60
21676;DHT22;10999;51.332;9.458;2023-07-24T06:27:00;18.90;82.90
21676;DHT22;10999;51.332;9.458;2023-07-24T06:29:27;19.00;81.30
21676;DHT22;10999;51.332;9.458;2023-07-24T06:31:54;19.10;80.90
21676;DHT22;10999;51.332;9.458;2023-07-24T06:34:20;19.10;82.00
21676;DHT22;10999;51.332;9.458;2023-07-24T06:36:47;19.20;81.30
21676;DHT22;10999;51.332;9.458;2023-07-24T06:39:14;19.40;80.80
21676;DHT22;10999;51.332;9.458;2023-07-24T06:41:41;19.60;79.20
21676;DHT22;10999;51.332;9.458;2023-07-24T06:44:08;19.90;77.70
21676;DHT22;10999;51.332;9.458;2023-07-24T06:46:35;20.00;76.70
21676;DHT22;10999;51.332;9.458;2023-07-24T06:49:02;20.00;73.60
21676;DHT22;10999;51.332;9.458;2023-07-24T06:51:29;20.00;73.00
21676;DHT22;10999;51.332;9.458;2023-07-24T06:53:55;19.90;75.90
21676;DHT22;10999;51.332;9.458;2023-07-24T06:56:22;19.90;75.30
21676;DHT22;10999;51.332;9.458;2023-07-24T06:58:49;19.90;76.50
21676;DHT22;10999;51.332;9.458;2023-07-24T07:01:16;20.00;73.60
21676;DHT22;10999;51.332;9.458;2023-07-24T07:03:43;20.10;75.00
21676;DHT22;10999;51.332;9.458;2023-07-24T07:06:09;20.20;72.80
21676;DHT22;10999;51.332;9.458;2023-07-24T07:08:53;20.30;73.10
21676;DHT22;10999;51.332;9.458;2023-07-24T07:11:20;20.50;73.40
21676;DHT22;10999;51.332;9.458;2023-07-24T07:13:47;20.60;72.30
21676;DHT22;10999;51.332;9.458;2023-07-24T07:16:14;20.60;68.20
21676;DHT22;10999;51.332;9.458;2023-07-24T07:18:43;20.70;69.00
21676;DHT22;10999;51.332;9.458;2023-07-24T07:21:10;21.00;66.90
21676;DHT22;10999;51.332;9.458;2023-07-24T07:23:37;21.20;67.30
21676;DHT22;10999;51.332;9.458;2023-07-24T07:26:04;21.50;64.90
21676;DHT22;10999;51.332;9.458;2023-07-24T07:28:30;21.70;60.90
21676;DHT22;10999;51.332;9.458;2023-07-24T07:30:57;21.80;61.00
21676;DHT22;10999;51.332;9.458;2023-07-24T07:33:24;22.00;57.10
21676;DHT22;10999;51.332;9.458;2023-07-24T07:35:51;22.00;54.30
21676;DHT22;10999;51.332;9.458;2023-07-24T07:38:18;22.10;56.80
21676;DHT22;10999;51.332;9.458;2023-07-24T07:40:45;22.40;58.40
21676;DHT22;10999;51.332;9.458;2023-07-24T07:43:12;22.60;53.60
21676;DHT22;10999;51.332;9.458;2023-07-24T07:45:38;22.80;51.90
21676;DHT22;10999;51.332;9.458;2023-07-24T07:48:05;22.90;51.50
21676;DHT22;10999;51.332;9.458;2023-07-24T07:50:32;23.00;48.70
21676;DHT22;10999;51.332;9.458;2023-07-24T07:52:59;23.10;48.60
21676;DHT22;10999;51.332;9.458;2023-07-24T07:55:26;23.10;48.50
21676;DHT22;10999;51.332;9.458;2023-07-24T07:57:53;23.00;49.70
21676;DHT22;10999;51.332;9.458;2023-07-24T08:00:20;22.70;48.70
21676;DHT22;10999;51.332;9.458;2023-07-24T08:02:47;22.60;49.60
21676;DHT22;10999;51.332;9.458;2023-07-24T08:05:14;22.60;50.70
21676;DHT22;10999;51.332;9.458;2023-07-24T08:07:47;22.60;51.20
21676;DHT22;10999;51.332;9.458;2023-07-24T08:10:14;22.80;51.00
21676;DHT22;10999;51.332;9.458;2023-07-24T08:12:43;22.90;49.70
21676;DHT22;10999;51.332;9.458;2023-07-24T08:15:10;22.80;47.10
21676;DHT22;10999;51.332;9.458;2023-07-24T08:17:38;22.80;46.90
21676;DHT22;10999;51.332;9.458;2023-07-24T08:20:05;22.80;49.70
21676;DHT22;10999;51.332;9.458;2023-07-24T08:22:33;22.80;46.50
21676;DHT22;10999;51.332;9.458;2023-07-24T08:24:59;22.90;49.40
21676;DHT22;10999;51.332;9.458;2023-07-24T08:27:26;23.10;47.70
21676;DHT22;10999;51.332;9.458;2023-07-24T08:29:53;23.10;45.40
21676;DHT22;10999;51.332;9.458;2023-07-24T08:32:20;23.10;46.50
21676;DHT22;10999;51.332;9.458;2023-07-24T08:34:47;23.00;46.10
21676;DHT22;10999;51.332;9.458;2023-07-24T08:37:14;23.00;46.60
21676;DHT22;10999;51.332;9.458;2023-07-24T08:39:42;23.00;47.30
21676;DHT22;10999;51.332;9.458;2023-07-24T08:42:12;23.30;47.30
21676;DHT22;10999;51.332;9.458;2023-07-24T08:44:40;23.50;45.90
21676;DHT22;10999;51.332;9.458;2023-07-24T08:47:11;23.70;44.20
21676;DHT22;10999;51.332;9.458;2023-07-24T08:49:39;23.80;42.90
21676;DHT22;10999;51.332;9.458;2023-07-24T08:52:07;23.80;43.70
21676;DHT22;10999;51.332;9.458;2023-07-24T08:54:40;23.90;45.70
21676;DHT22;10999;51.332;9.458;2023-07-24T08:57:07;23.90;42.50
21676;DHT22;10999;51.332;9.458;2023-07-24T08:59:34;23.80;41.30
21676;DHT22;10999;51.332;9.458;2023-07-24T09:02:02;23.60;39.70
21676;DHT22;10999;51.332;9.458;2023-07-24T09:04:29;23.70;42.00
21676;DHT22;10999;51.332;9.458;2023-07-24T09:06:57;23.80;41.00
21676;DHT22;10999;51.332;9.458;2023-07-24T09:09:29;23.80;39.10
21676;DHT22;10999;51.332;9.458;2023-07-24T09:11:57;23.90;40.40
21676;DHT22;10999;51.332;9.458;2023-07-24T09:14:29;24.00;41.10
21676;DHT22;10999;51.332;9.458;2023-07-24T09:17:07;24.10;39.70
21676;DHT22;10999;51.332;9.458;2023-07-24T09:19:35;24.30;38.00
21676;DHT22;10999;51.332;9.458;2023-07-24T09:22:09;24.60;38.40
21676;DHT22;10999;51.332;9.458;2023-07-24T09:24:37;24.80;37.30
21676;DHT22;10999;51.332;9.458;2023-07-24T09:27:05;24.80;34.90
21676;DHT22;10999;51.332;9.458;2023-07-24T09:29:34;25.00;36.20
21676;DHT22;10999;51.332;9.458;2023-07-24T09:32:02;25.10;35.50
21676;DHT22;10999;51.332;9.458;2023-07-24T09:34:29;24.90;34.70
21676;DHT22;10999;51.332;9.458;2023-07-24T09:36:56;24.70;33.20
21676;DHT22;10999;51.332;9.458;2023-07-24T09:39:26;24.50;36.30
21676;DHT22;10999;51.332;9.458;2023-07-24T09:42:05;24.60;35.90
21676;DHT22;10999;51.332;9.458;2023-07-24T09:44:32;24.60;35.40
21676;DHT22;10999;51.332;9.458;2023-07-24T09:46:59;24.70;34.80
21676;DHT22;10999;51.332;9.458;2023-07-24T09:49:47;24.70;33.40
21676;DHT22;10999;51.332;9.458;2023-07-24T09:52:15;24.70;36.20
21676;DHT22;10999;51.332;9.458;2023-07-24T09:57:19;24.40;35.20
21676;DHT22;10999;51.332;9.458;2023-07-24T09:59:49;24.40;36.40
21676;DHT22;10999;51.332;9.458;2023-07-24T10:02:17;24.40;37.80
21676;DHT22;10999;51.332;9.458;2023-07-24T10:04:44;24.60;37.60
21676;DHT22;10999;51.332;9.458;2023-07-24T10:07:13;24.70;35.70
21676;DHT22;10999;51.332;9.458;2023-07-24T10:09:44;24.90;35.80
21676;DHT22;10999;51.332;9.458;2023-07-24T10:12:11;25.00;34.70
21676;DHT22;10999;51.332;9.458;2023-07-24T10:14:38;25.20;36.30
21676;DHT22;10999;51.332;9.458;2023-07-24T10:17:05;25.40;35.70
21676;DHT22;10999;51.332;9.458;2023-07-24T10:19:36;25.60;35.80
21676;DHT22;10999;51.332;9.458;2023-07-24T10:22:04;25.50;29.30
21676;DHT22;10999;51.332;9.458;2023-07-24T10:24:33;25.40;31.60
21676;DHT22;10999;51.332;9.458;2023-07-24T10:27:08;25.10;30.90
21676;DHT22;10999;51.332;9.458;2023-07-24T10:29:35;24.80;31.50
21676;DHT22;10999;51.332;9.458;2023-07-24T10:32:03;24.80;33.40
21676;DHT22;10999;51.332;9.458;2023-07-24T10:34:38;25.10;34.70
21676;DHT22;10999;51.332;9.458;2023-07-24T10:37:07;25.20;33.50
21676;DHT22;10999;51.332;9.458;2023-07-24T10:39:41;25.20;32.70
21676;DHT22;10999;51.332;9.458;2023-07-24T10:42:09;25.10;30.80
21676;DHT22;10999;51.332;9.458;2023-07-24T10:44:37;25.00;31.60
21676;DHT22;10999;51.332;9.458;2023-07-24T10:47:04;24.80;33.40
21676;DHT22;10999;51.332;9.458;2023-07-24T10:49:31;24.80;35.20
21676;DHT22;10999;51.332;9.458;2023-07-24T10:51:58;24.80;34.70
21676;DHT22;10999;51.332;9.458;2023-07-24T10:54:25;24.70;29.90
21676;DHT22;10999;51.332;9.458;2023-07-24T10:56:59;24.60;28.50
21676;DHT22;10999;51.332;9.458;2023-07-24T10:59:40;24.50;28.70
21676;DHT22;10999;51.332;9.458;2023-07-24T11:02:07;24.40;30.30
21676;DHT22;10999;51.332;9.458;2023-07-24T11:04:34;24.50;31.00
21676;DHT22;10999;51.332;9.458;2023-07-24T11:07:01;24.80;35.30
21676;DHT22;10999;51.332;9.458;2023-07-24T11:09:38;25.00;34.70
21676;DHT22;10999;51.332;9.458;2023-07-24T11:12:16;25.20;33.40
21676;DHT22;10999;51.332;9.458;2023-07-24T11:14:50;25.30;33.50
21676;DHT22;10999;51.332;9.458;2023-07-24T11:17:17;25.50;32.80
21676;DHT22;10999;51.332;9.458;2023-07-24T11:19:44;25.70;35.20
21676;DHT22;10999;51.332;9.458;2023-07-24T11:22:12;25.80;31.40
21676;DHT22;10999;51.332;9.458;2023-07-24T11:24:48;25.70;29.40
21676;DHT22;10999;51.332;9.458;2023-07-24T11:27:16;25.50;29.90
21676;DHT22;10999;51.332;9.458;2023-07-24T11:29:50;25.30;28.90
21676;DHT22;10999;51.332;9.458;2023-07-24T11:32:20;25.30;30.40
21676;DHT22;10999;51.332;9.458;2023-07-24T11:34:48;25.30;30.30
21676;DHT22;10999;51.332;9.458;2023-07-24T11:37:16;25.30;30.00
21676;DHT22;10999;51.332;9.458;2023-07-24T11:39:55;25.20;30.40
21676;DHT22;10999;51.332;9.458;2023-07-24T11:42:25;25.00;29.20
21676;DHT22;10999;51.332;9.458;2023-07-24T11:44:52;24.80;30.30
21676;DHT22;10999;51.332;9.458;2023-07-24T11:47:19;24.60;29.50
21676;DHT22;10999;51.332;9.458;2023-07-24T11:49:57;24.60;30.80
21676;DHT22;10999;51.332;9.458;2023-07-24T11:52:24;24.80;30.80
21676;DHT22;10999;51.332;9.458;2023-07-24T11:54:57;25.20;29.80
21676;DHT22;10999;51.332;9.458;2023-07-24T11:57:28;25.60;28.40
21676;DHT22;10999;51.332;9.458;2023-07-24T11:59:55;25.70;27.00
21676;DHT22;10999;51.332;9.458;2023-07-24T12:02:27;25.80;26.00
21676;DHT22;10999;51.332;9.458;2023-07-24T12:04:59;25.80;26.50
21676;DHT22;10999;51.332;9.458;2023-07-24T12:07:33;25.70;26.00
21676;DHT22;10999;51.332;9.458;2023-07-24T12:10:05;25.60;26.40
21676;DHT22;10999;51.332;9.458;2023-07-24T12:12:52;25.40;25.60
21676;DHT22;10999;51.332;9.458;2023-07-24T12:15:18;25.20;27.40
21676;DHT22;10999;51.332;9.458;2023-07-24T12:17:50;25.20;28.40
21676;DHT22;10999;51.332;9.458;2023-07-24T12:20:17;25.40;27.60
21676;DHT22;10999;51.332;9.458;2023-07-24T12:22:43;25.70;25.50
21676;DHT22;10999;51.332;9.458;2023-07-24T12:25:10;25.90;25.80
21676;DHT22;10999;51.332;9.458;2023-07-24T12:27:37;26.10;26.10
21676;DHT22;10999;51.332;9.458;2023-07-24T12:30:06;26.20;24.20
21676;DHT22;10999;51.332;9.458;2023-07-24T12:32:33;26.30;23.60
21676;DHT22;10999;51.332;9.458;2023-07-24T12:35:00;26.50;24.10
21676;DHT22;10999;51.332;9.458;2023-07-24T12:37:27;26.60;26.10
21676;DHT22;10999;51.332;9.458;2023-07-24T12:39:55;26.80;23.00
21676;DHT22;10999;51.332;9.458;2023-07-24T12:42:22;26.80;23.60
21676;DHT22;10999;51.332;9.458;2023-07-24T12:44:50;26.90;21.50
21676;DHT22;10999;51.332;9.458;2023-07-24T12:47:16;26.50;20.90
21676;DHT22;10999;51.332;9.458;2023-07-24T12:49:43;26.30;23.10
21676;DHT22;10999;51.332;9.458;2023-07-24T12:52:10;26.50;26.20
21676;DHT22;10999;51.332;9.458;2023-07-24T12:54:37;26.60;23.40
21676;DHT22;10999;51.332;9.458;2023-07-24T12:57:24;26.30;21.70
21676;DHT22;10999;51.332;9.458;2023-07-24T12:59:52;26.10;25.60
21676;DHT22;10999;51.332;9.458;2023-07-24T13:02:20;26.00;25.10
21676;DHT22;10999;51.332;9.458;2023-07-24T13:04:47;25.80;23.60
21676;DHT22;10999;51.332;9.458;2023-07-24T13:07:14;25.50;25.30
21676;DHT22;10999;51.332;9.458;2023-07-24T13:09:40;25.40;25.50
21676;DHT22;10999;51.332;9.458;2023-07-24T13:12:08;25.20;26.70
21676;DHT22;10999;51.332;9.458;2023-07-24T13:14:35;25.40;28.00
21676;DHT22;10999;51.332;9.458;2023-07-24T13:17:04;25.70;26.80
21676;DHT22;10999;51.332;9.458;2023-07-24T13:19:31;25.90;25.00
21676;DHT22;10999;51.332;9.458;2023-07-24T13:21:58;25.70;25.40
21676;DHT22;10999;51.332;9.458;2023-07-24T13:24:25;25.70;25.80
21676;DHT22;10999;51.332;9.458;2023-07-24T13:26:52;25.50;26.10
21676;DHT22;10999;51.332;9.458;2023-07-24T13:29:19;25.30;24.70
21676;DHT22;10999;51.332;9.458;2023-07-24T13:31:50;25.20;26.70
21676;DHT22;10999;51.332;9.458;2023-07-24T13:34:19;25.10;27.20
21676;DHT22;10999;51.332;9.458;2023-07-24T13:36:48;25.00;27.70
21676;DHT22;10999;51.332;9.458;2023-07-24T13:39:15;25.20;26.00
21676;DHT22;10999;51.332;9.458;2023-07-24T13:41:42;25.60;28.20
21676;DHT22;10999;51.332;9.458;2023-07-24T13:44:09;25.80;24.60
21676;DHT22;10999;51.332;9.458;2023-07-24T13:46:36;25.90;24.10
21676;DHT22;10999;51.332;9.458;2023-07-24T13:49:06;26.00;27.00
21676;DHT22;10999;51.332;9.458;2023-07-24T13:51:33;25.90;25.80
21676;DHT22;10999;51.332;9.458;2023-07-24T13:54:00;25.60;25.50
21676;DHT22;10999;51.332;9.458;2023-07-24T13:56:29;25.40;26.30
21676;DHT22;10999;51.332;9.458;2023-07-24T13:59:00;25.20;28.70
21676;DHT22;10999;51.332;9.458;2023-07-24T14:01:27;25.00;32.60
21676;DHT22;10999;51.332;9.458;2023-07-24T14:03:55;24.60;42.80
21676;DHT22;10999;51.332;9.458;2023-07-24T14:06:22;24.20;44.90
21676;DHT22;10999;51.332;9.458;2023-07-24T14:08:49;24.10;50.00
21676;DHT22;10999;51.332;9.458;2023-07-24T14:11:16;24.10;47.60
21676;DHT22;10999;51.332;9.458;2023-07-24T14:13:42;24.00;47.20
21676;DHT22;10999;51.332;9.458;2023-07-24T14:16:11;24.00;46.90
21676;DHT22;10999;51.332;9.458;2023-07-24T14:18:38;24.00;45.30
21676;DHT22;10999;51.332;9.458;2023-07-24T14:21:05;24.10;45.10
21676;DHT22;10999;51.332;9.458;2023-07-24T14:23:32;24.00;43.20
21676;DHT22;10999;51.332;9.458;2023-07-24T14:25:59;23.90;43.10
21676;DHT22;10999;51.332;9.458;2023-07-24T14:28:25;23.90;43.70
21676;DHT22;10999;51.332;9.458;2023-07-24T14:30:52;23.80;40.70
21676;DHT22;10999;51.332;9.458;2023-07-24T14:33:19;22.90;40.10
21676;DHT22;10999;51.332;9.458;2023-07-24T14:35:46;21.20;53.10
21676;DHT22;10999;51.332;9.458;2023-07-24T14:38:13;19.60;67.90
21676;DHT22;10999;51.332;9.458;2023-07-24T14:40:40;18.60;74.80
21676;DHT22;10999;51.332;9.458;2023-07-24T14:43:06;18.00;80.60
21676;DHT22;10999;51.332;9.458;2023-07-24T14:45:33;17.60;82.60
21676;DHT22;10999;51.332;9.458;2023-07-24T14:48:00;17.20;86.40
21676;DHT22;10999;51.332;9.458;2023-07-24T14:50:27;17.10;88.70
21676;DHT22;10999;51.332;9.458;2023-07-24T14:52:55;17.00;91.20
21676;DHT22;10999;51.332;9.458;2023-07-24T14:55:21;16.90;94.00
21676;DHT22;10999;51.332;9.458;2023-07-24T14:57:49;16.90;93.50
21676;DHT22;10999;51.332;9.458;2023-07-24T15:00:16;16.80;94.10
21676;DHT22;10999;51.332;9.458;2023-07-24T15:02:43;16.80;96.00
21676;DHT22;10999;51.332;9.458;2023-07-24T15:05:10;16.70;96.80
21676;DHT22;10999;51.332;9.458;2023-07-24T15:07:37;16.70;97.50
21676;DHT22;10999;51.332;9.458;2023-07-24T15:10:05;16.80;97.90
21676;DHT22;10999;51.332;9.458;2023-07-24T15:12:32;17.10;99.90
21676;DHT22;10999;51.332;9.458;2023-07-24T15:14:59;17.50;99.90
21676;DHT22;10999;51.332;9.458;2023-07-24T15:17:26;17.90;99.90
21676;DHT22;10999;51.332;9.458;2023-07-24T15:19:53;18.20;99.90
21676;DHT22;10999;51.332;9.458;2023-07-24T15:22:20;18.60;99.90
21676;DHT22;10999;51.332;9.458;2023-07-24T15:24:47;18.80;98.90
21676;DHT22;10999;51.332;9.458;2023-07-24T15:27:14;19.00;98.40
21676;DHT22;10999;51.332;9.458;2023-07-24T15:29:41;19.20;96.90
21676;DHT22;10999;51.332;9.458;2023-07-24T15:32:08;19.20;92.60
21676;DHT22;10999;51.332;9.458;2023-07-24T15:34:35;19.10;91.90
21676;DHT22;10999;51.332;9.458;2023-07-24T15:37:05;19.20;93.20